createdAt,value
2019-01-19T00:01:34.814Z,99.90
2019-01-19T00:04:19.875Z,99.90
2019-01-19T00:07:09.764Z,99.90
2019-01-19T00:09:48.999Z,99.90
2019-01-19T00:12:33.396Z,99.90
2019-01-19T00:15:07.708Z,99.90
2019-01-19T00:17:44.930Z,99.90
2019-01-19T00:20:35.702Z,99.90
2019-01-19T00:23:18.791Z,99.90
2019-01-19T00:26:17.320Z,99.90
2019-01-19T00:29:08.864Z,99.90
2019-01-19T00:32:03.458Z,99.90
2019-01-19T00:34:56.296Z,99.90
2019-01-19T00:37:29.248Z,99.90
2019-01-19T00:40:05.170Z,99.90
2019-01-19T00:42:48.585Z,99.90
2019-01-19T00:45:33.526Z,99.90
2019-01-19T00:48:06.954Z,99.90
2019-01-19T00:50:59.593Z,99.90
2019-01-19T00:53:38.761Z,99.90
2019-01-19T00:56:29.704Z,99.90
2019-01-19T00:59:02.516Z,99.90
2019-01-19T01:01:38.859Z,99.90
2019-01-19T01:04:31.727Z,99.90
2019-01-19T01:07:30.166Z,99.90
2019-01-19T01:10:22.726Z,99.90
2019-01-19T01:13:12.758Z,99.90
2019-01-19T01:16:08.245Z,99.90
2019-01-19T01:18:47.641Z,99.90
2019-01-19T01:21:23.254Z,99.90
2019-01-19T01:24:08.731Z,99.90
2019-01-19T01:26:54.579Z,99.90
2019-01-19T01:29:46.477Z,99.90
2019-01-19T01:32:34.378Z,99.90
2019-01-19T01:35:18.399Z,99.90
2019-01-19T01:37:54.096Z,99.90
2019-01-19T01:40:42.154Z,99.90
2019-01-19T01:43:30.145Z,99.90
2019-01-19T01:46:11.612Z,99.90
2019-01-19T01:48:51.360Z,99.90
2019-01-19T01:51:27.307Z,99.90
2019-01-19T01:54:13.400Z,99.90
2019-01-19T01:56:43.989Z,99.90
2019-01-19T01:59:18.546Z,99.90
2019-01-19T02:01:57.913Z,99.90
2019-01-19T02:04:36.506Z,99.90
2019-01-19T02:07:13.839Z,99.90
2019-01-19T02:10:01.644Z,99.90
2019-01-19T02:12:39.778Z,99.90
2019-01-19T02:15:30.948Z,99.90
2019-01-19T02:18:09.545Z,99.90
2019-01-19T02:20:47.857Z,99.90
2019-01-19T02:23:25.451Z,99.90
2019-01-19T02:26:08.876Z,99.90
2019-01-19T02:29:07.542Z,99.90
2019-01-19T02:31:56.398Z,99.90
2019-01-19T02:34:42.695Z,99.90
2019-01-19T02:37:20.790Z,99.90
2019-01-19T02:40:12.296Z,99.90
2019-01-19T02:43:07.867Z,99.90
2019-01-19T02:45:46.601Z,99.90
2019-01-19T02:48:49.730Z,99.90
2019-01-19T02:51:42.702Z,99.90
2019-01-19T02:54:49.844Z,99.90
2019-01-19T02:57:41.601Z,99.90
2019-01-19T03:00:40.756Z,99.90
2019-01-19T03:03:22.504Z,99.90
2019-01-19T03:05:56.473Z,99.90
2019-01-19T03:08:42.190Z,99.90
2019-01-19T03:11:26.838Z,99.90
2019-01-19T03:14:23.229Z,99.90
2019-01-19T03:17:08.454Z,99.90
2019-01-19T03:19:45.463Z,99.90
2019-01-19T03:22:29.356Z,99.90
2019-01-19T03:25:20.179Z,99.90
2019-01-19T03:28:08.680Z,99.90
2019-01-19T03:30:52.019Z,99.90
2019-01-19T03:33:32.242Z,99.90
2019-01-19T03:36:30.067Z,99.90
2019-01-19T03:39:19.984Z,99.90
2019-01-19T03:42:17.635Z,99.90
2019-01-19T03:45:18.334Z,99.90
2019-01-19T03:47:54.288Z,99.90
2019-01-19T03:50:47.908Z,99.90
2019-01-19T03:53:21.884Z,99.90
2019-01-19T03:56:07.583Z,99.90
2019-01-19T03:58:49.398Z,99.90
2019-01-19T04:01:34.549Z,99.90
2019-01-19T04:04:19.367Z,99.90
2019-01-19T04:06:55.765Z,99.90
2019-01-19T04:09:35.071Z,99.90
2019-01-19T04:12:30.954Z,99.90
2019-01-19T04:15:24.450Z,99.90
2019-01-19T04:17:58.717Z,99.90
2019-01-19T04:20:43.489Z,99.90
2019-01-19T04:23:14.268Z,99.90
2019-01-19T04:25:47.651Z,99.90
2019-01-19T04:28:19.217Z,99.90
2019-01-19T04:30:49.745Z,99.90
2019-01-19T04:33:19.676Z,99.90
2019-01-19T04:35:49.617Z,99.90
2019-01-19T04:38:22.122Z,99.90
2019-01-19T04:40:54.286Z,99.90
2019-01-19T04:43:26.045Z,99.90
2019-01-19T04:45:57.037Z,99.90
2019-01-19T04:48:27.054Z,99.90
2019-01-19T04:50:58.064Z,99.90
2019-01-19T04:53:27.931Z,99.90
2019-01-19T04:55:59.395Z,99.90
2019-01-19T04:58:30.428Z,99.90
2019-01-19T05:01:02.934Z,99.90
2019-01-19T05:03:33.999Z,99.90
2019-01-19T05:06:11.693Z,99.90
2019-01-19T05:08:35.419Z,99.90
2019-01-19T05:11:07.862Z,99.90
2019-01-19T05:13:37.870Z,99.90
2019-01-19T05:16:08.923Z,99.90
2019-01-19T05:18:39.197Z,99.90
2019-01-19T05:21:10.230Z,99.90
2019-01-19T05:23:40.853Z,99.90
2019-01-19T05:26:11.179Z,99.90
2019-01-19T05:28:42.626Z,99.90
2019-01-19T05:31:14.707Z,99.90
2019-01-19T05:33:45.338Z,99.90
2019-01-19T05:36:16.562Z,99.90
2019-01-19T05:38:50.774Z,99.90
2019-01-19T05:41:21.109Z,99.90
2019-01-19T05:43:56.448Z,99.90
2019-01-19T05:46:27.633Z,99.90
2019-01-19T05:48:57.739Z,99.90
2019-01-19T05:51:30.628Z,99.90
2019-01-19T05:54:04.169Z,99.90
2019-01-19T05:56:36.338Z,99.90
2019-01-19T05:59:08.473Z,99.90
2019-01-19T06:01:39.511Z,99.90
2019-01-19T06:04:11.171Z,99.90
2019-01-19T06:06:46.812Z,99.90
2019-01-19T06:09:14.343Z,99.90
2019-01-19T06:11:48.120Z,99.90
2019-01-19T06:14:21.858Z,99.90
2019-01-19T06:16:52.338Z,99.90
2019-01-19T06:19:26.037Z,99.90
2019-01-19T06:21:57.582Z,99.90
2019-01-19T06:24:28.428Z,99.90
2019-01-19T06:27:01.176Z,99.90
2019-01-19T06:29:32.588Z,99.90
2019-01-19T06:32:03.042Z,99.90
2019-01-19T06:34:35.332Z,99.90
2019-01-19T06:37:05.234Z,99.90
2019-01-19T06:39:37.810Z,99.90
2019-01-19T06:42:13.221Z,99.90
2019-01-19T06:44:44.555Z,99.90
2019-01-19T06:47:15.345Z,99.90
2019-01-19T06:49:49.878Z,99.90
2019-01-19T06:52:22.461Z,99.90
2019-01-19T06:54:53.059Z,99.90
2019-01-19T06:57:22.975Z,99.90
2019-01-19T06:59:52.802Z,99.90
2019-01-19T07:02:26.986Z,99.90
2019-01-19T07:04:56.731Z,99.90
2019-01-19T07:07:27.054Z,99.90
2019-01-19T07:09:56.711Z,99.90
2019-01-19T07:12:27.263Z,99.90
2019-01-19T07:14:57.273Z,99.90
2019-01-19T07:17:27.902Z,99.90
2019-01-19T07:20:19.025Z,99.90
2019-01-19T07:22:50.388Z,99.90
2019-01-19T07:25:20.638Z,99.90
2019-01-19T07:27:52.012Z,99.90
2019-01-19T07:30:21.704Z,99.90
2019-01-19T07:32:51.557Z,99.90
2019-01-19T07:35:23.016Z,99.90
2019-01-19T07:37:54.557Z,99.90
2019-01-19T07:40:26.017Z,99.90
2019-01-19T07:43:03.484Z,99.90
2019-01-19T07:45:35.903Z,99.90
2019-01-19T07:48:11.613Z,99.90
2019-01-19T07:50:44.895Z,99.90
2019-01-19T07:53:16.307Z,99.90
2019-01-19T07:55:51.415Z,99.90
2019-01-19T07:58:22.546Z,99.90
2019-01-19T08:00:54.370Z,99.90
2019-01-19T08:03:24.424Z,99.90
2019-01-19T08:05:55.427Z,99.90
2019-01-19T08:08:26.898Z,99.90
2019-01-19T08:10:57.030Z,99.90
2019-01-19T08:13:27.867Z,99.90
2019-01-19T08:16:01.319Z,99.90
2019-01-19T08:18:33.230Z,99.90
2019-01-19T08:21:06.951Z,99.90
2019-01-19T08:23:37.048Z,99.90
2019-01-19T08:26:07.018Z,99.90
2019-01-19T08:28:37.646Z,99.90
2019-01-19T08:31:08.492Z,99.90
2019-01-19T08:33:38.207Z,99.90
2019-01-19T08:36:10.657Z,99.90
2019-01-19T08:38:42.783Z,99.90
2019-01-19T08:41:19.313Z,99.90
2019-01-19T08:43:53.057Z,99.90
2019-01-19T08:46:25.984Z,99.90
2019-01-19T08:48:56.365Z,99.90
2019-01-19T08:51:28.863Z,99.90
2019-01-19T08:53:58.891Z,99.90
2019-01-19T08:56:28.616Z,99.90
2019-01-19T08:58:58.623Z,99.90
2019-01-19T09:01:30.159Z,99.90
2019-01-19T09:04:05.134Z,99.90
2019-01-19T09:06:35.187Z,99.90
2019-01-19T09:09:07.704Z,99.90
2019-01-19T09:11:40.065Z,99.90
2019-01-19T09:14:13.925Z,99.90
2019-01-19T09:16:44.438Z,99.90
2019-01-19T09:19:15.808Z,99.90
2019-01-19T09:21:47.233Z,99.90
2019-01-19T09:24:18.711Z,99.90
2019-01-19T09:26:50.635Z,99.90
2019-01-19T09:29:22.418Z,99.90
2019-01-19T09:31:53.519Z,99.90
2019-01-19T09:34:26.349Z,99.90
2019-01-19T09:36:59.520Z,99.90
2019-01-19T09:39:29.931Z,99.90
2019-01-19T09:42:02.645Z,99.90
2019-01-19T09:44:35.382Z,99.90
2019-01-19T09:47:06.058Z,99.90
2019-01-19T09:49:36.376Z,99.90
2019-01-19T09:52:07.002Z,99.90
2019-01-19T09:54:38.808Z,99.90
2019-01-19T09:57:10.104Z,99.90
2019-01-19T09:59:40.712Z,99.90
2019-01-19T10:02:10.651Z,99.90
2019-01-19T10:04:40.620Z,99.90
2019-01-19T10:07:10.481Z,99.90
2019-01-19T10:09:42.995Z,99.90
2019-01-19T10:12:12.769Z,99.90
2019-01-19T10:14:42.665Z,99.90
2019-01-19T10:17:12.625Z,99.90
2019-01-19T10:19:42.333Z,99.90
2019-01-19T10:22:12.065Z,99.90
2019-01-19T10:24:41.763Z,99.90
2019-01-19T10:27:11.726Z,99.90
2019-01-19T10:29:41.838Z,99.90
2019-01-19T10:32:11.719Z,99.90
2019-01-19T10:34:41.654Z,99.90
2019-01-19T10:37:11.727Z,99.90
2019-01-19T10:39:41.718Z,99.90
2019-01-19T10:42:11.666Z,99.90
2019-01-19T10:44:41.353Z,99.90
2019-01-19T10:47:11.019Z,99.90
2019-01-19T10:49:40.774Z,99.90
2019-01-19T10:52:10.752Z,99.90
2019-01-19T10:54:40.602Z,99.90
2019-01-19T10:57:10.904Z,99.90
2019-01-19T10:59:40.695Z,99.90
2019-01-19T11:02:10.390Z,99.90
2019-01-19T11:04:40.051Z,99.90
2019-01-19T11:07:09.941Z,99.90
2019-01-19T11:09:39.748Z,99.90
2019-01-19T11:12:09.826Z,99.90
2019-01-19T11:14:39.733Z,99.90
2019-01-19T11:17:09.719Z,99.90
2019-01-19T11:19:39.686Z,99.90
2019-01-19T11:22:09.729Z,99.90
2019-01-19T11:24:39.381Z,99.90
2019-01-19T11:27:09.106Z,99.90
2019-01-19T11:29:38.699Z,99.90
2019-01-19T11:32:09.119Z,99.90
2019-01-19T11:34:38.923Z,99.90
2019-01-19T11:37:09.005Z,99.90
2019-01-19T11:39:38.773Z,99.90
2019-01-19T11:42:09.040Z,99.90
2019-01-19T11:44:38.777Z,99.90
2019-01-19T11:47:09.189Z,99.90
2019-01-19T11:49:38.849Z,99.90
2019-01-19T11:52:09.105Z,99.90
2019-01-19T11:54:39.090Z,99.90
2019-01-19T11:57:09.082Z,99.90
2019-01-19T11:59:38.744Z,99.90
2019-01-19T12:02:08.978Z,99.90
2019-01-19T12:04:38.740Z,99.90
2019-01-19T12:07:09.118Z,99.90
2019-01-19T12:09:38.800Z,99.90
2019-01-19T12:12:09.048Z,99.90
2019-01-19T12:14:38.853Z,99.90
2019-01-19T12:17:10.563Z,99.90
2019-01-19T12:19:40.213Z,92.80
2019-01-19T12:22:10.116Z,97.20
2019-01-19T12:24:39.839Z,96.90
2019-01-19T12:27:09.509Z,99.10
2019-01-19T12:29:39.179Z,99.30
2019-01-19T12:32:09.185Z,99.90
2019-01-19T12:34:38.967Z,99.90
2019-01-19T12:37:09.166Z,99.90
2019-01-19T12:39:38.844Z,99.90
2019-01-19T12:42:09.030Z,99.40
2019-01-19T12:44:38.860Z,99.90
2019-01-19T12:47:09.001Z,99.90
2019-01-19T12:49:38.867Z,99.90
2019-01-19T12:52:08.987Z,99.90
2019-01-19T12:54:38.797Z,99.90
2019-01-19T12:57:09.187Z,99.90
2019-01-19T12:59:38.904Z,99.90
2019-01-19T13:02:08.997Z,99.90
2019-01-19T13:04:38.879Z,99.90
2019-01-19T13:07:09.025Z,99.90
2019-01-19T13:09:38.901Z,99.90
2019-01-19T13:12:18.016Z,99.90
2019-01-19T13:14:51.015Z,99.90
2019-01-19T13:17:41.949Z,99.90
2019-01-19T13:20:15.137Z,99.90
2019-01-19T13:23:04.978Z,99.90
2019-01-19T13:25:37.941Z,99.90
2019-01-19T13:28:37.057Z,99.90
2019-01-19T13:31:19.033Z,99.90
2019-01-19T13:34:07.458Z,99.90
2019-01-19T13:36:40.396Z,95.60
2019-01-19T13:39:22.572Z,90.50
2019-01-19T13:41:58.133Z,71.50
2019-01-19T13:44:42.787Z,67.30
2019-01-19T13:47:24.393Z,62.50
2019-01-19T13:50:22.646Z,60.90
2019-01-19T13:52:55.827Z,59.00
2019-01-19T13:56:03.606Z,59.90
2019-01-19T13:58:47.801Z,57.40
2019-01-19T14:01:23.835Z,56.70
2019-01-19T14:03:56.611Z,55.50
2019-01-19T14:06:35.284Z,56.10
2019-01-19T14:09:23.106Z,57.80
2019-01-19T14:12:18.695Z,59.60
2019-01-19T14:15:03.505Z,58.60
2019-01-19T14:17:45.025Z,59.60
2019-01-19T14:20:32.649Z,58.90
2019-01-19T14:23:14.339Z,64.10
2019-01-19T14:25:49.999Z,57.90
2019-01-19T14:28:26.108Z,60.80
2019-01-19T14:31:08.067Z,58.60
2019-01-19T14:33:49.865Z,59.00
2019-01-19T14:36:42.066Z,59.20
2019-01-19T14:39:23.858Z,61.10
2019-01-19T14:42:02.543Z,64.10
2019-01-19T14:44:44.384Z,62.70
2019-01-19T14:47:35.194Z,67.40
2019-01-19T14:50:36.649Z,74.40
2019-01-19T14:53:30.074Z,83.30
2019-01-19T14:56:18.097Z,91.90
2019-01-19T14:58:57.028Z,92.10
2019-01-19T15:01:32.773Z,93.60
2019-01-19T15:04:11.315Z,95.30
2019-01-19T15:06:46.905Z,97.30
2019-01-19T15:09:38.749Z,96.60
2019-01-19T15:12:18.146Z,96.70
2019-01-19T15:15:03.241Z,97.00
2019-01-19T15:17:51.063Z,95.10
2019-01-19T15:20:23.818Z,97.40
2019-01-19T15:23:12.839Z,96.20
2019-01-19T15:26:04.962Z,97.90
2019-01-19T15:28:58.749Z,99.90
2019-01-19T15:31:53.413Z,99.90
2019-01-19T15:34:34.943Z,99.90
2019-01-19T15:37:13.790Z,99.90
2019-01-19T15:39:49.721Z,99.90
2019-01-19T15:42:46.274Z,99.90
2019-01-19T15:45:31.049Z,99.90
2019-01-19T15:48:21.811Z,99.90
2019-01-19T15:51:09.610Z,99.90
2019-01-19T15:53:42.622Z,99.90
2019-01-19T15:56:21.431Z,99.90
2019-01-19T15:59:09.246Z,99.90
2019-01-19T16:01:48.138Z,99.90
2019-01-19T16:04:37.334Z,99.90
2019-01-19T16:07:22.087Z,99.90
2019-01-19T16:09:58.193Z,99.90
2019-01-19T16:12:45.977Z,99.90
2019-01-19T16:15:23.345Z,99.90
2019-01-19T16:17:59.032Z,99.90
2019-01-19T16:20:31.808Z,99.90
2019-01-19T16:23:16.609Z,99.90
2019-01-19T16:26:10.435Z,99.90
2019-01-19T16:28:43.259Z,99.90
2019-01-19T16:31:22.195Z,99.90
2019-01-19T16:34:11.278Z,99.90
2019-01-19T16:36:56.303Z,99.90
2019-01-19T16:39:54.662Z,99.90
2019-01-19T16:42:33.287Z,99.90
2019-01-19T16:45:14.883Z,99.90
2019-01-19T16:47:53.500Z,99.90
2019-01-19T16:50:42.946Z,99.90
2019-01-19T16:53:21.335Z,99.90
2019-01-19T16:56:09.304Z,99.90
2019-01-19T16:59:00.007Z,99.90
2019-01-19T17:01:38.379Z,99.90
2019-01-19T17:04:12.572Z,99.90
2019-01-19T17:06:50.739Z,99.90
2019-01-19T17:09:23.553Z,99.90
2019-01-19T17:12:12.737Z,99.90
2019-01-19T17:15:02.178Z,99.90
2019-01-19T17:17:53.157Z,99.90
2019-01-19T17:20:47.328Z,99.90
2019-01-19T17:23:23.279Z,99.90
2019-01-19T17:26:01.657Z,99.90
2019-01-19T17:28:48.911Z,99.90
2019-01-19T17:31:33.311Z,99.90
2019-01-19T17:34:24.249Z,99.90
2019-01-19T17:36:57.310Z,99.90
2019-01-19T17:39:56.453Z,99.90
2019-01-19T17:42:32.101Z,99.90
2019-01-19T17:45:28.784Z,99.90
2019-01-19T17:48:16.409Z,99.90
2019-01-19T17:51:01.199Z,99.90
2019-01-19T17:53:46.214Z,99.90
2019-01-19T17:56:36.134Z,99.90
2019-01-19T17:59:40.864Z,99.90
2019-01-19T18:02:48.834Z,99.90
2019-01-19T18:05:30.460Z,99.90
2019-01-19T18:08:28.950Z,99.90
2019-01-19T18:11:18.289Z,99.90
2019-01-19T18:14:00.155Z,99.90
2019-01-19T18:17:04.167Z,99.90
2019-01-19T18:19:43.249Z,99.90
2019-01-19T18:22:25.251Z,99.90
2019-01-19T18:25:14.102Z,99.90
2019-01-19T18:27:48.113Z,99.90
2019-01-19T18:30:42.534Z,99.90
2019-01-19T18:33:15.553Z,99.90
2019-01-19T18:35:53.892Z,99.90
2019-01-19T18:38:41.728Z,99.90
2019-01-19T18:41:43.639Z,99.90
2019-01-19T18:44:28.810Z,99.90
2019-01-19T18:47:07.685Z,99.90
2019-01-19T18:50:05.554Z,99.90
2019-01-19T18:53:11.389Z,99.90
2019-01-19T18:56:02.197Z,99.90
2019-01-19T18:58:59.230Z,99.90
2019-01-19T19:01:49.914Z,99.90
2019-01-19T19:04:31.732Z,99.90
2019-01-19T19:07:21.222Z,99.90
2019-01-19T19:10:02.071Z,99.90
2019-01-19T19:12:52.243Z,99.90
2019-01-19T19:15:49.830Z,99.90
2019-01-19T19:18:51.030Z,99.90
2019-01-19T19:21:23.794Z,99.90
2019-01-19T19:24:31.350Z,99.90
2019-01-19T19:27:26.673Z,99.90
2019-01-19T19:29:59.586Z,99.90
2019-01-19T19:32:34.943Z,99.90
2019-01-19T19:35:40.906Z,99.90
2019-01-19T19:38:36.249Z,99.90
2019-01-19T19:41:20.898Z,99.90
2019-01-19T19:44:13.049Z,99.90
2019-01-19T19:47:01.067Z,99.90
2019-01-19T19:49:36.555Z,99.90
2019-01-19T19:52:06.425Z,99.90
2019-01-19T19:54:36.123Z,99.90
2019-01-19T19:57:05.866Z,99.90
2019-01-19T19:59:35.575Z,99.90
2019-01-19T20:02:05.412Z,99.90
2019-01-19T20:04:35.335Z,99.90
2019-01-19T20:07:04.971Z,99.90
2019-01-19T20:09:34.757Z,99.90
2019-01-19T20:12:06.022Z,99.90
2019-01-19T20:14:35.739Z,99.90
2019-01-19T20:17:05.625Z,99.90
2019-01-19T20:19:35.392Z,99.90
2019-01-19T20:22:05.112Z,99.90
2019-01-19T20:24:34.754Z,99.90
2019-01-19T20:27:04.506Z,99.90
2019-01-19T20:29:34.481Z,99.90
2019-01-19T20:32:04.553Z,99.90
2019-01-19T20:34:34.502Z,99.90
2019-01-19T20:37:04.498Z,99.90
2019-01-19T20:39:34.458Z,99.90
2019-01-19T20:42:04.454Z,99.90
2019-01-19T20:44:34.394Z,99.90
2019-01-19T20:47:04.114Z,99.90
2019-01-19T20:49:33.778Z,99.90
2019-01-19T20:52:03.545Z,99.90
2019-01-19T20:54:33.490Z,99.90
2019-01-19T20:57:03.637Z,99.90
2019-01-19T20:59:33.512Z,99.90
2019-01-19T21:02:03.585Z,99.90
2019-01-19T21:04:33.523Z,99.90
2019-01-19T21:07:03.504Z,99.90
2019-01-19T21:09:33.688Z,99.90
2019-01-19T21:12:03.537Z,99.90
2019-01-19T21:14:33.457Z,99.90
2019-01-19T21:17:03.182Z,99.90
2019-01-19T21:19:32.847Z,99.90
2019-01-19T21:22:02.615Z,99.90
2019-01-19T21:24:32.573Z,99.90
2019-01-19T21:27:02.174Z,99.90
2019-01-19T21:29:31.825Z,99.90
2019-01-19T21:32:01.601Z,99.90
2019-01-19T21:34:31.517Z,99.90
2019-01-19T21:37:02.727Z,99.90
2019-01-19T21:39:32.605Z,99.90
2019-01-19T21:42:02.628Z,99.90
2019-01-19T21:44:32.463Z,99.90
2019-01-19T21:47:02.266Z,99.90
2019-01-19T21:49:31.942Z,99.90
2019-01-19T21:52:01.606Z,99.90
2019-01-19T21:54:32.021Z,99.90
2019-01-19T21:57:01.716Z,99.90
2019-01-19T21:59:31.695Z,99.90
2019-01-19T22:02:01.620Z,99.90
2019-01-19T22:04:31.605Z,99.90
2019-01-19T22:07:01.320Z,99.90
2019-01-19T22:09:30.939Z,99.90
2019-01-19T22:12:00.731Z,99.90
2019-01-19T22:14:30.766Z,99.90
2019-01-19T22:17:00.863Z,99.90
2019-01-19T22:19:30.696Z,99.90
2019-01-19T22:22:00.747Z,99.90
2019-01-19T22:24:30.702Z,99.90
2019-01-19T22:27:00.993Z,99.90
2019-01-19T22:29:30.749Z,99.90
2019-01-19T22:32:00.751Z,99.90
2019-01-19T22:34:30.740Z,99.90
2019-01-19T22:37:00.736Z,99.90
2019-01-19T22:39:30.717Z,99.90
2019-01-19T22:42:00.435Z,99.90
2019-01-19T22:44:30.045Z,99.90
2019-01-19T22:46:59.753Z,99.90
2019-01-19T22:49:29.732Z,99.90
2019-01-19T22:51:59.695Z,99.90
2019-01-19T22:54:29.762Z,99.90
2019-01-19T22:56:59.389Z,99.90
2019-01-19T22:59:29.120Z,99.90
2019-01-19T23:01:58.816Z,99.90
2019-01-19T23:04:28.905Z,99.90
2019-01-19T23:06:58.919Z,99.90
2019-01-19T23:09:29.591Z,99.90
2019-01-19T23:11:59.367Z,99.90
2019-01-19T23:14:29.832Z,99.90
2019-01-19T23:16:59.858Z,99.90
2019-01-19T23:19:29.830Z,99.90
2019-01-19T23:21:59.884Z,99.90
2019-01-19T23:24:29.882Z,99.90
2019-01-19T23:27:01.216Z,99.90
2019-01-19T23:29:30.880Z,99.90
2019-01-19T23:32:00.806Z,99.90
2019-01-19T23:34:30.911Z,99.90
2019-01-19T23:37:00.866Z,99.90
2019-01-19T23:39:30.849Z,99.90
2019-01-19T23:42:00.827Z,99.90
2019-01-19T23:44:31.144Z,99.90
2019-01-19T23:47:01.138Z,99.90
2019-01-19T23:49:30.948Z,99.90
2019-01-19T23:52:03.270Z,99.90
2019-01-19T23:54:33.196Z,99.90
2019-01-19T23:57:04.252Z,99.90
2019-01-19T23:59:35.203Z,99.90
